createdAt,value
2022-11-01T00:01:24.288Z,9.10
2022-11-01T00:03:50.991Z,9.00
2022-11-01T00:06:17.589Z,9.00
2022-11-01T00:08:44.252Z,8.90
2022-11-01T00:11:12.540Z,9.00
2022-11-01T00:13:39.200Z,9.00
2022-11-01T00:16:06.274Z,9.00
2022-11-01T00:18:32.860Z,9.00
2022-11-01T00:20:59.631Z,9.00
2022-11-01T00:23:26.220Z,9.00
2022-11-01T00:25:52.853Z,9.00
2022-11-01T00:28:19.424Z,9.00
2022-11-01T00:30:46.141Z,9.00
2022-11-01T00:33:12.730Z,9.00
2022-11-01T00:35:39.397Z,9.00
2022-11-01T00:38:06.260Z,9.10
2022-11-01T00:40:33.110Z,9.10
2022-11-01T00:42:59.775Z,9.10
2022-11-01T00:45:26.386Z,9.10
2022-11-01T00:47:53.017Z,9.10
2022-11-01T00:50:19.653Z,9.10
2022-11-01T00:52:46.326Z,9.10
2022-11-01T00:55:12.956Z,9.20
2022-11-01T00:57:39.668Z,9.10
2022-11-01T01:00:06.834Z,9.10
2022-11-01T01:02:33.508Z,9.10
2022-11-01T01:05:00.150Z,9.10
2022-11-01T01:07:26.785Z,9.10
2022-11-01T01:09:53.586Z,9.10
2022-11-01T01:12:20.217Z,9.20
2022-11-01T01:14:46.873Z,9.10
2022-11-01T01:17:13.563Z,9.10
2022-11-01T01:19:40.359Z,9.10
2022-11-01T01:22:07.040Z,9.00
2022-11-01T01:24:34.047Z,9.00
2022-11-01T01:27:00.722Z,9.00
2022-11-01T01:29:27.365Z,9.00
2022-11-01T01:31:54.102Z,9.00
2022-11-01T01:34:20.870Z,9.00
2022-11-01T01:36:47.806Z,9.00
2022-11-01T01:39:15.579Z,8.90
2022-11-01T01:41:57.460Z,8.90
2022-11-01T01:44:44.964Z,8.90
2022-11-01T01:47:14.136Z,8.90
2022-11-01T01:49:42.702Z,8.90
2022-11-01T01:52:12.722Z,8.90
2022-11-01T01:54:39.360Z,8.90
2022-11-01T01:57:06.095Z,8.90
2022-11-01T01:59:32.811Z,9.00
2022-11-01T02:02:00.173Z,9.00
2022-11-01T02:04:29.977Z,9.00
2022-11-01T02:06:58.029Z,9.00
2022-11-01T02:09:28.102Z,8.90
2022-11-01T02:11:57.668Z,9.00
2022-11-01T02:14:25.472Z,9.00
2022-11-01T02:16:55.288Z,8.90
2022-11-01T02:19:40.550Z,8.90
2022-11-01T02:22:10.905Z,8.90
2022-11-01T02:24:56.214Z,8.90
2022-11-01T02:27:22.859Z,8.90
2022-11-01T02:30:07.885Z,8.90
2022-11-01T02:32:34.463Z,8.90
2022-11-01T02:35:15.797Z,8.80
2022-11-01T02:37:46.991Z,8.90
2022-11-01T02:40:42.738Z,8.90
2022-11-01T02:43:35.374Z,8.90
2022-11-01T02:46:23.122Z,8.90
2022-11-01T02:48:49.931Z,8.80
2022-11-01T02:51:18.429Z,8.90
2022-11-01T02:53:45.000Z,9.00
2022-11-01T02:56:11.834Z,9.00
2022-11-01T02:58:39.280Z,9.00
2022-11-01T03:01:15.795Z,9.10
2022-11-01T03:03:45.240Z,9.10
2022-11-01T03:06:50.415Z,9.10
2022-11-01T03:09:17.036Z,9.10
2022-11-01T03:11:43.711Z,9.20
2022-11-01T03:14:10.305Z,9.20
2022-11-01T03:16:39.908Z,9.30
2022-11-01T03:19:06.528Z,9.30
2022-11-01T03:21:47.103Z,9.30
2022-11-01T03:24:16.626Z,9.30
2022-11-01T03:26:43.769Z,9.40
2022-11-01T03:29:11.809Z,9.40
2022-11-01T03:31:39.495Z,9.40
2022-11-01T03:34:08.744Z,9.40
2022-11-01T03:36:38.514Z,9.40
2022-11-01T03:39:08.670Z,9.40
2022-11-01T03:41:37.769Z,9.40
2022-11-01T03:44:04.847Z,9.50
2022-11-01T03:46:31.584Z,9.40
2022-11-01T03:48:58.255Z,9.50
2022-11-01T03:51:24.903Z,9.50
2022-11-01T03:53:51.517Z,9.50
2022-11-01T03:56:18.285Z,9.50
2022-11-01T03:58:46.010Z,9.60
2022-11-01T04:01:14.080Z,9.70
2022-11-01T04:03:41.145Z,9.60
2022-11-01T04:06:07.918Z,9.70
2022-11-01T04:08:34.629Z,9.70
2022-11-01T04:11:01.302Z,9.70
2022-11-01T04:13:27.897Z,9.80
2022-11-01T04:16:13.331Z,9.70
2022-11-01T04:18:58.776Z,9.80
2022-11-01T04:21:26.218Z,9.90
2022-11-01T04:23:52.883Z,9.90
2022-11-01T04:26:21.137Z,9.90
2022-11-01T04:28:57.127Z,10.00
2022-11-01T04:31:31.624Z,10.00
2022-11-01T04:33:59.057Z,10.00
2022-11-01T04:36:25.833Z,10.10
2022-11-01T04:38:55.693Z,10.10
2022-11-01T04:41:23.121Z,10.10
2022-11-01T04:43:49.975Z,10.10
2022-11-01T04:46:16.626Z,10.20
2022-11-01T04:48:43.235Z,10.20
2022-11-01T04:51:09.953Z,10.10
2022-11-01T04:53:36.864Z,10.20
2022-11-01T04:56:04.188Z,10.20
2022-11-01T04:58:30.850Z,10.20
2022-11-01T05:00:57.705Z,10.30
2022-11-01T05:03:24.344Z,10.30
2022-11-01T05:05:50.955Z,10.30
2022-11-01T05:08:17.662Z,10.40
2022-11-01T05:10:44.664Z,10.50
2022-11-01T05:13:12.234Z,10.50
2022-11-01T05:15:40.196Z,10.50
2022-11-01T05:18:14.799Z,10.50
2022-11-01T05:20:41.433Z,10.50
2022-11-01T05:23:08.800Z,10.50
2022-11-01T05:25:38.062Z,10.60
2022-11-01T05:28:10.750Z,10.60
2022-11-01T05:30:37.791Z,10.60
2022-11-01T05:33:05.760Z,10.70
2022-11-01T05:35:33.023Z,10.70
2022-11-01T05:38:01.242Z,10.60
2022-11-01T05:40:28.369Z,10.70
2022-11-01T05:42:55.005Z,10.70
2022-11-01T05:45:21.602Z,10.70
2022-11-01T05:47:48.217Z,10.70
2022-11-01T05:50:15.790Z,10.60
2022-11-01T05:52:43.100Z,10.60
2022-11-01T05:55:10.167Z,10.60
2022-11-01T05:57:36.851Z,10.50
2022-11-01T06:00:04.486Z,10.50
2022-11-01T06:02:31.901Z,10.50
2022-11-01T06:05:02.649Z,10.60
2022-11-01T06:07:29.744Z,10.60
2022-11-01T06:09:56.409Z,10.60
2022-11-01T06:12:23.546Z,10.70
2022-11-01T06:14:50.292Z,10.70
2022-11-01T06:17:17.102Z,10.70
2022-11-01T06:19:43.702Z,10.70
2022-11-01T06:22:10.336Z,10.70
2022-11-01T06:24:36.925Z,10.80
2022-11-01T06:27:04.685Z,10.80
2022-11-01T06:29:32.992Z,10.80
2022-11-01T06:31:59.659Z,10.80
2022-11-01T06:34:26.237Z,10.90
2022-11-01T06:36:52.860Z,10.90
2022-11-01T06:39:19.453Z,11.00
2022-11-01T06:41:46.146Z,11.20
2022-11-01T06:44:12.763Z,11.20
2022-11-01T06:46:39.343Z,11.50
2022-11-01T06:49:05.997Z,11.70
2022-11-01T06:51:32.593Z,12.00
2022-11-01T06:53:59.253Z,12.20
2022-11-01T06:56:26.036Z,12.40
2022-11-01T06:58:52.721Z,12.60
2022-11-01T07:01:21.593Z,12.70
2022-11-01T07:03:51.978Z,12.90
2022-11-01T07:06:18.893Z,13.00
2022-11-01T07:08:45.550Z,13.20
2022-11-01T07:11:12.224Z,13.40
2022-11-01T07:13:38.909Z,13.50
2022-11-01T07:16:05.721Z,13.70
2022-11-01T07:18:32.555Z,13.80
2022-11-01T07:21:02.121Z,13.80
2022-11-01T07:23:29.464Z,13.90
2022-11-01T07:25:56.335Z,14.00
2022-11-01T07:28:23.342Z,14.20
2022-11-01T07:30:50.652Z,14.10
2022-11-01T07:33:17.523Z,14.20
2022-11-01T07:35:44.515Z,14.20
2022-11-01T07:38:13.113Z,14.20
2022-11-01T07:40:40.621Z,14.30
2022-11-01T07:43:07.594Z,14.30
2022-11-01T07:45:34.777Z,14.30
2022-11-01T07:48:03.260Z,14.30
2022-11-01T07:50:30.446Z,14.20
2022-11-01T07:53:04.480Z,14.30
2022-11-01T07:55:31.404Z,14.30
2022-11-01T07:57:58.122Z,14.30
2022-11-01T08:00:24.950Z,14.40
2022-11-01T08:02:51.723Z,14.60
2022-11-01T08:05:18.455Z,14.80
2022-11-01T08:07:45.149Z,14.90
2022-11-01T08:10:12.158Z,15.10
2022-11-01T08:12:38.801Z,15.10
2022-11-01T08:15:05.751Z,15.20
2022-11-01T08:17:35.339Z,15.00
2022-11-01T08:20:02.095Z,14.90
2022-11-01T08:22:28.719Z,15.00
2022-11-01T08:24:55.549Z,15.10
2022-11-01T08:27:22.161Z,15.20
2022-11-01T08:29:48.871Z,15.30
2022-11-01T08:32:19.531Z,15.40
2022-11-01T08:34:46.109Z,15.50
2022-11-01T08:37:13.230Z,15.60
2022-11-01T08:39:39.848Z,15.70
2022-11-01T08:42:06.592Z,15.70
2022-11-01T08:44:34.577Z,15.70
2022-11-01T08:47:01.752Z,15.50
2022-11-01T08:49:28.648Z,15.70
2022-11-01T08:51:55.855Z,15.80
2022-11-01T08:54:22.630Z,15.90
2022-11-01T08:56:49.302Z,16.00
2022-11-01T08:59:16.018Z,16.00
2022-11-01T09:01:42.781Z,16.20
2022-11-01T09:04:09.609Z,16.40
2022-11-01T09:06:36.611Z,16.60
2022-11-01T09:09:03.785Z,16.90
2022-11-01T09:11:31.108Z,17.30
2022-11-01T09:14:01.322Z,17.60
2022-11-01T09:16:28.163Z,17.90
2022-11-01T09:18:54.996Z,18.10
2022-11-01T09:21:21.577Z,18.30
2022-11-01T09:23:48.230Z,18.30
2022-11-01T09:26:14.941Z,18.50
2022-11-01T09:28:41.698Z,18.70
2022-11-01T09:31:25.895Z,18.80
2022-11-01T09:33:57.078Z,18.90
2022-11-01T09:36:27.794Z,19.00
2022-11-01T09:38:54.858Z,19.00
2022-11-01T09:41:24.249Z,19.10
2022-11-01T09:43:52.057Z,19.10
2022-11-01T09:48:50.756Z,18.70
2022-11-01T09:51:20.353Z,18.70
2022-11-01T09:53:48.526Z,18.60
2022-11-01T09:56:18.983Z,18.60
2022-11-01T09:59:02.210Z,18.50
2022-11-01T10:01:47.808Z,18.50
2022-11-01T10:04:27.650Z,18.60
2022-11-01T10:06:54.222Z,18.60
2022-11-01T10:09:29.856Z,18.70
2022-11-01T10:12:19.378Z,18.90
2022-11-01T10:15:04.800Z,20.40
2022-11-01T10:17:37.219Z,22.30
2022-11-01T10:20:04.577Z,23.40
2022-11-01T10:22:34.059Z,24.20
2022-11-01T10:25:19.403Z,24.50
2022-11-01T10:28:04.646Z,24.70
2022-11-01T10:30:36.495Z,24.20
2022-11-01T10:33:06.567Z,23.40
2022-11-01T10:35:59.609Z,23.30
2022-11-01T10:39:04.585Z,23.30
2022-11-01T10:41:24.292Z,23.30
2022-11-01T10:43:55.337Z,23.10
2022-11-01T10:46:24.291Z,23.00
2022-11-01T10:48:53.620Z,22.90
2022-11-01T10:51:26.739Z,22.50
2022-11-01T10:53:57.237Z,22.10
2022-11-01T10:56:44.728Z,21.80
2022-11-01T10:59:20.381Z,22.00
2022-11-01T11:01:49.048Z,22.10
2022-11-01T11:04:16.760Z,21.60
2022-11-01T11:06:43.660Z,20.80
2022-11-01T11:09:22.322Z,20.30
2022-11-01T11:11:49.788Z,20.20
2022-11-01T11:14:17.659Z,20.10
2022-11-01T11:16:46.586Z,20.20
2022-11-01T11:19:16.298Z,20.30
2022-11-01T11:21:43.781Z,20.40
2022-11-01T11:24:21.381Z,20.60
2022-11-01T11:26:53.211Z,20.50
2022-11-01T11:29:24.005Z,20.50
2022-11-01T11:31:55.748Z,20.40
2022-11-01T11:34:24.913Z,20.40
2022-11-01T11:36:54.920Z,20.60
2022-11-01T11:39:29.208Z,20.40
2022-11-01T11:42:10.267Z,20.30
2022-11-01T11:44:44.697Z,20.10
2022-11-01T11:47:20.666Z,20.20
2022-11-01T11:49:48.465Z,20.40
2022-11-01T11:52:17.278Z,20.30
2022-11-01T11:54:44.311Z,20.30
2022-11-01T11:57:14.552Z,20.40
2022-11-01T11:59:42.045Z,20.40
2022-11-01T12:02:20.896Z,20.40
2022-11-01T12:04:52.849Z,20.20
2022-11-01T12:07:27.674Z,20.30
2022-11-01T12:09:55.567Z,20.10
2022-11-01T12:12:24.970Z,20.20
2022-11-01T12:14:52.211Z,20.40
2022-11-01T12:17:26.304Z,20.30
2022-11-01T12:20:07.843Z,20.10
2022-11-01T12:22:34.943Z,20.00
2022-11-01T12:25:06.525Z,19.90
2022-11-01T12:27:35.062Z,19.60
2022-11-01T12:30:05.384Z,19.60
2022-11-01T12:33:02.588Z,19.50
2022-11-01T12:35:30.994Z,19.50
2022-11-01T12:37:57.552Z,19.60
2022-11-01T12:40:26.928Z,19.60
2022-11-01T12:43:04.103Z,19.60
2022-11-01T12:45:43.757Z,19.60
2022-11-01T12:48:14.195Z,19.60
2022-11-01T12:50:49.528Z,19.60
2022-11-01T12:53:34.902Z,19.60
2022-11-01T12:56:01.622Z,19.50
2022-11-01T12:58:33.487Z,19.90
2022-11-01T13:01:14.037Z,19.90
2022-11-01T13:04:01.491Z,20.00
2022-11-01T13:06:39.985Z,19.90
2022-11-01T13:09:18.615Z,20.00
2022-11-01T13:11:54.402Z,19.90
2022-11-01T13:14:39.702Z,20.10
2022-11-01T13:17:25.279Z,20.40
2022-11-01T13:20:05.583Z,20.40
2022-11-01T13:22:41.067Z,20.10
2022-11-01T13:25:30.181Z,19.90
2022-11-01T13:28:02.877Z,19.70
2022-11-01T13:30:30.315Z,19.60
2022-11-01T13:33:19.205Z,19.50
2022-11-01T13:35:57.111Z,19.50
2022-11-01T13:38:24.081Z,19.50
2022-11-01T13:40:50.904Z,19.60
2022-11-01T13:43:22.382Z,19.50
2022-11-01T13:45:54.841Z,19.60
2022-11-01T13:48:39.629Z,19.60
2022-11-01T13:51:12.196Z,19.60
2022-11-01T13:53:47.264Z,19.80
2022-11-01T13:56:19.313Z,19.80
2022-11-01T13:58:46.333Z,20.00
2022-11-01T14:01:30.683Z,20.00
2022-11-01T14:04:15.984Z,19.40
2022-11-01T14:07:05.000Z,19.50
2022-11-01T14:09:32.473Z,19.60
2022-11-01T14:12:05.092Z,19.60
2022-11-01T14:14:31.746Z,19.60
2022-11-01T14:17:17.333Z,19.40
2022-11-01T14:19:44.213Z,19.50
2022-11-01T14:22:24.080Z,19.40
2022-11-01T14:24:53.823Z,19.30
2022-11-01T14:27:32.477Z,19.10
2022-11-01T14:29:59.265Z,19.00
2022-11-01T14:32:27.734Z,19.00
2022-11-01T14:35:14.627Z,19.00
2022-11-01T14:37:49.824Z,18.90
2022-11-01T14:40:35.309Z,18.80
2022-11-01T14:43:10.636Z,18.50
2022-11-01T14:45:40.859Z,18.30
2022-11-01T14:48:17.109Z,18.20
2022-11-01T14:50:46.591Z,18.00
2022-11-01T14:53:17.759Z,18.10
2022-11-01T14:55:44.365Z,18.10
2022-11-01T14:58:21.560Z,18.10
2022-11-01T15:00:50.225Z,18.10
2022-11-01T15:03:17.533Z,17.90
2022-11-01T15:05:45.529Z,17.90
2022-11-01T15:08:20.525Z,17.70
2022-11-01T15:10:47.276Z,17.70
2022-11-01T15:13:15.654Z,17.50
2022-11-01T15:15:42.314Z,17.40
2022-11-01T15:18:15.855Z,17.30
2022-11-01T15:20:46.847Z,17.20
2022-11-01T15:23:17.762Z,17.10
2022-11-01T15:25:50.486Z,17.10
2022-11-01T15:28:20.714Z,17.10
2022-11-01T15:30:53.344Z,17.00
2022-11-01T15:33:24.232Z,16.90
2022-11-01T15:35:55.365Z,16.80
2022-11-01T15:38:23.400Z,16.70
2022-11-01T15:40:50.535Z,16.60
2022-11-01T15:43:18.572Z,16.50
2022-11-01T15:45:46.876Z,16.50
2022-11-01T15:48:17.310Z,16.40
2022-11-01T15:50:48.688Z,16.30
2022-11-01T15:53:19.016Z,16.30
2022-11-01T15:55:47.352Z,16.20
2022-11-01T15:58:13.973Z,16.10
2022-11-01T16:00:51.242Z,16.00
2022-11-01T16:03:27.407Z,15.90
2022-11-01T16:05:58.520Z,15.80
2022-11-01T16:08:38.219Z,15.70
2022-11-01T16:11:05.178Z,15.60
2022-11-01T16:13:33.327Z,15.40
2022-11-01T16:16:04.819Z,15.30
2022-11-01T16:18:35.597Z,15.10
2022-11-01T16:21:22.116Z,15.00
2022-11-01T16:24:04.010Z,14.90
2022-11-01T16:26:33.534Z,14.70
2022-11-01T16:29:00.214Z,14.60
2022-11-01T16:31:32.748Z,14.50
2022-11-01T16:33:59.466Z,14.40
2022-11-01T16:36:32.410Z,14.30
2022-11-01T16:38:59.163Z,14.10
2022-11-01T16:41:37.898Z,13.90
2022-11-01T16:44:14.771Z,13.80
2022-11-01T16:46:41.514Z,13.60
2022-11-01T16:49:13.946Z,13.50
2022-11-01T16:51:40.877Z,13.30
2022-11-01T16:54:10.463Z,13.20
2022-11-01T16:56:39.387Z,13.10
2022-11-01T16:59:16.464Z,12.90
2022-11-01T17:01:45.151Z,12.80
2022-11-01T17:04:13.062Z,12.70
2022-11-01T17:06:39.704Z,12.50
2022-11-01T17:09:11.567Z,12.30
2022-11-01T17:11:38.226Z,12.20
2022-11-01T17:14:04.913Z,12.10
2022-11-01T17:16:31.571Z,12.10
2022-11-01T17:18:59.975Z,12.00
2022-11-01T17:21:29.000Z,11.90
2022-11-01T17:23:55.736Z,11.80
2022-11-01T17:26:23.794Z,11.70
2022-11-01T17:28:52.467Z,11.60
2022-11-01T17:31:19.345Z,11.50
2022-11-01T17:33:46.072Z,11.40
2022-11-01T17:36:14.279Z,11.30
2022-11-01T17:38:41.226Z,11.30
2022-11-01T17:41:09.379Z,11.20
2022-11-01T17:43:36.017Z,11.10
2022-11-01T17:46:03.290Z,11.10
2022-11-01T17:48:29.948Z,11.00
2022-11-01T17:51:00.096Z,11.00
2022-11-01T17:53:26.746Z,10.80
2022-11-01T17:55:57.470Z,10.80
2022-11-01T17:58:24.210Z,10.80
2022-11-01T18:00:51.123Z,10.70
2022-11-01T18:03:17.730Z,10.70
2022-11-01T18:05:44.394Z,10.70
2022-11-01T18:08:21.649Z,10.70
2022-11-01T18:11:05.389Z,10.70
2022-11-01T18:13:46.476Z,10.70
2022-11-01T18:16:20.379Z,10.60
2022-11-01T18:19:00.527Z,10.60
2022-11-01T18:21:30.151Z,10.50
2022-11-01T18:23:57.258Z,10.50
2022-11-01T18:26:24.591Z,10.40
2022-11-01T18:28:54.077Z,10.40
2022-11-01T18:31:50.076Z,10.40
2022-11-01T18:34:21.298Z,10.40
2022-11-01T18:36:52.633Z,10.40
2022-11-01T18:39:19.297Z,10.30
2022-11-01T18:41:46.322Z,10.30
2022-11-01T18:44:13.663Z,10.30
2022-11-01T18:46:50.013Z,10.30
2022-11-01T18:49:16.704Z,10.20
2022-11-01T18:51:44.473Z,10.10
2022-11-01T18:54:11.330Z,10.10
2022-11-01T18:56:42.983Z,10.10
2022-11-01T18:59:13.215Z,10.10
2022-11-01T19:01:40.882Z,10.00
2022-11-01T19:04:17.334Z,10.00
2022-11-01T19:06:44.601Z,10.00
2022-11-01T19:09:20.119Z,10.00
2022-11-01T19:11:46.835Z,9.90
2022-11-01T19:14:18.244Z,9.80
2022-11-01T19:16:45.654Z,9.80
2022-11-01T19:19:16.990Z,9.80
2022-11-01T19:21:43.712Z,9.70
2022-11-01T19:24:34.454Z,9.60
2022-11-01T19:27:01.271Z,9.50
2022-11-01T19:29:31.081Z,9.40
2022-11-01T19:31:59.104Z,9.40
2022-11-01T19:34:27.799Z,9.40
2022-11-01T19:36:55.044Z,9.30
2022-11-01T19:39:29.241Z,9.20
2022-11-01T19:41:58.769Z,9.20
2022-11-01T19:44:25.770Z,9.20
2022-11-01T19:47:16.241Z,9.20
2022-11-01T19:49:43.285Z,9.10
2022-11-01T19:52:09.971Z,9.10
2022-11-01T19:54:37.693Z,9.00
2022-11-01T19:59:57.146Z,8.90
2022-11-01T20:02:23.979Z,8.80
2022-11-01T20:04:56.296Z,8.80
2022-11-01T20:07:26.911Z,8.70
2022-11-01T20:09:58.455Z,8.70
2022-11-01T20:12:25.603Z,8.60
2022-11-01T20:14:52.320Z,8.50
2022-11-01T20:17:18.960Z,8.50
2022-11-01T20:19:45.618Z,8.50
2022-11-01T20:22:12.395Z,8.40
2022-11-01T20:24:39.012Z,8.40
2022-11-01T20:27:05.762Z,8.30
2022-11-01T20:29:32.473Z,8.30
2022-11-01T20:31:59.134Z,8.30
2022-11-01T20:34:27.266Z,8.30
2022-11-01T20:37:27.436Z,8.20
2022-11-01T20:39:40.786Z,8.20
2022-11-01T20:42:08.077Z,8.10
2022-11-01T20:44:34.771Z,8.10
2022-11-01T20:47:01.422Z,8.10
2022-11-01T20:49:28.159Z,8.00
2022-11-01T20:51:57.764Z,7.90
2022-11-01T20:54:31.264Z,7.90
2022-11-01T20:56:57.889Z,7.80
2022-11-01T20:59:24.614Z,7.80
2022-11-01T21:01:51.310Z,7.70
2022-11-01T21:04:19.291Z,7.70
2022-11-01T21:06:46.245Z,7.60
2022-11-01T21:09:51.794Z,7.60
2022-11-01T21:12:41.330Z,7.50
2022-11-01T21:15:26.193Z,7.50
2022-11-01T21:17:57.263Z,7.50
2022-11-01T21:20:24.967Z,7.50
2022-11-01T21:22:54.534Z,7.50
2022-11-01T21:25:22.531Z,7.50
2022-11-01T21:27:50.272Z,7.60
2022-11-01T21:30:18.693Z,7.40
2022-11-01T21:32:46.157Z,7.40
2022-11-01T21:35:35.802Z,7.40
2022-11-01T21:38:07.467Z,7.40
2022-11-01T21:40:34.097Z,7.40
2022-11-01T21:43:00.864Z,7.40
2022-11-01T21:45:29.648Z,7.40
2022-11-01T21:48:00.965Z,7.30
2022-11-01T21:50:28.130Z,7.30
2022-11-01T21:52:54.823Z,7.30
2022-11-01T21:55:21.605Z,7.30
2022-11-01T21:57:51.284Z,7.20
2022-11-01T22:00:18.018Z,7.20
2022-11-01T22:02:44.790Z,7.20
2022-11-01T22:05:11.548Z,7.20
2022-11-01T22:07:38.212Z,7.20
2022-11-01T22:10:05.165Z,7.10
2022-11-01T22:12:32.128Z,7.10
2022-11-01T22:14:58.761Z,7.00
2022-11-01T22:17:25.473Z,7.00
2022-11-01T22:19:52.109Z,6.90
2022-11-01T22:22:18.738Z,6.90
2022-11-01T22:24:45.383Z,6.80
2022-11-01T22:27:11.994Z,6.70
2022-11-01T22:29:38.652Z,6.70
2022-11-01T22:32:07.878Z,6.60
2022-11-01T22:34:34.457Z,6.60
2022-11-01T22:37:01.098Z,6.50
2022-11-01T22:39:29.572Z,6.50
2022-11-01T22:41:56.258Z,6.50
2022-11-01T22:44:32.230Z,6.50
2022-11-01T22:46:59.902Z,6.50
2022-11-01T22:49:28.203Z,6.50
2022-11-01T22:51:59.785Z,6.40
2022-11-01T22:54:29.292Z,6.40
2022-11-01T22:57:07.035Z,6.40
2022-11-01T22:59:34.397Z,6.40
2022-11-01T23:02:18.897Z,6.40
2022-11-01T23:04:45.674Z,6.40
2022-11-01T23:07:35.599Z,6.40
2022-11-01T23:10:26.145Z,6.40
2022-11-01T23:13:16.454Z,6.30
2022-11-01T23:15:43.115Z,6.40
2022-11-01T23:18:17.873Z,6.30
2022-11-01T23:20:45.565Z,6.30
2022-11-01T23:23:18.008Z,6.30
2022-11-01T23:25:44.798Z,6.30
2022-11-01T23:28:11.783Z,6.20
2022-11-01T23:30:38.792Z,6.20
2022-11-01T23:33:08.362Z,6.20
2022-11-01T23:35:35.513Z,6.20
2022-11-01T23:38:02.153Z,6.00
2022-11-01T23:40:31.544Z,6.00
2022-11-01T23:42:58.197Z,6.00
2022-11-01T23:45:42.949Z,6.00
2022-11-01T23:48:09.733Z,6.00
2022-11-01T23:50:37.011Z,6.00
2022-11-01T23:53:09.728Z,5.90
2022-11-01T23:55:38.440Z,5.80
2022-11-01T23:58:11.832Z,5.80
